Time;durP1;ratioP1;P1;durP2;ratioP2;P2;SDS_P1;SDS_P2;PMS_P1;PMS_P2;Temp;Humidity;BMP_temperature;BMP_pressure;BME280_temperature;BME280_humidity;BME280_pressure;Samples;Min_cycle;Max_cycle;Signal;HPM_P1;HPM_P2
2021/04/27 00:00:01;;;;;;;0.30;0.30;;;4.70;97.70;;;;;;4427793;32;20120;-71
2021/04/27 00:02:27;;;;;;;0.37;0.37;;;4.70;97.70;;;;;;4423364;32;20066;-71
2021/04/27 00:04:52;;;;;;;0.40;0.40;;;4.70;97.40;;;;;;4428522;32;20065;-71
2021/04/27 00:07:18;;;;;;;0.30;0.30;;;4.80;97.60;;;;;;4431528;32;20387;-71
2021/04/27 00:09:44;;;;;;;0.20;0.20;;;4.90;97.70;;;;;;4427519;32;20066;-71
2021/04/27 00:12:09;;;;;;;0.30;0.30;;;5.00;97.50;;;;;;4422447;32;20483;-71
2021/04/27 00:14:35;;;;;;;2.12;0.85;;;4.90;97.70;;;;;;4422747;32;20078;-71
2021/04/27 00:17:01;;;;;;;0.40;0.40;;;4.70;97.70;;;;;;4415358;32;20072;-71
2021/04/27 00:19:27;;;;;;;0.28;0.28;;;4.70;97.90;;;;;;4416119;32;20095;-71
2021/04/27 00:21:53;;;;;;;0.40;0.40;;;4.70;98.20;;;;;;4417516;32;20065;-71
2021/04/27 00:24:18;;;;;;;0.40;0.40;;;4.80;97.90;;;;;;4415845;32;20546;-71
2021/04/27 00:26:44;;;;;;;0.30;0.30;;;4.70;98.10;;;;;;4415530;32;20069;-71
2021/04/27 00:29:09;;;;;;;0.40;0.40;;;4.60;98.70;;;;;;4430639;32;20065;-71
2021/04/27 00:31:35;;;;;;;0.55;0.55;;;4.40;99.20;;;;;;4417412;32;20428;-71
2021/04/27 00:34:01;;;;;;;0.37;0.37;;;4.40;99.50;;;;;;4426734;32;20069;-71
2021/04/27 00:36:27;;;;;;;0.50;0.50;;;4.40;99.80;;;;;;4424335;32;20120;-71
2021/04/27 00:38:54;;;;;;;0.30;0.30;;;4.40;99.80;;;;;;4417535;32;20073;-71
2021/04/27 00:41:20;;;;;;;0.35;0.35;;;4.40;99.90;;;;;;4415150;32;20074;-71
2021/04/27 00:43:46;;;;;;;0.73;0.55;;;4.40;99.90;;;;;;4415594;32;20066;-71
2021/04/27 00:46:11;;;;;;;0.40;0.40;;;4.30;99.90;;;;;;4420070;32;20072;-71
2021/04/27 00:48:37;;;;;;;0.30;0.30;;;4.30;99.90;;;;;;4428290;32;20065;-71
2021/04/27 00:51:02;;;;;;;0.30;0.30;;;4.20;99.90;;;;;;4421546;32;20128;-71
2021/04/27 00:53:29;;;;;;;0.40;0.40;;;4.30;99.90;;;;;;4420512;32;20499;-71
2021/04/27 00:55:55;;;;;;;0.30;0.30;;;4.20;99.90;;;;;;4418305;32;20464;-71
2021/04/27 00:58:21;;;;;;;0.35;0.35;;;4.10;99.90;;;;;;4425778;32;20073;-71
2021/04/27 01:00:49;;;;;;;0.37;0.37;;;4.10;99.90;;;;;;4428617;32;20069;-71
2021/04/27 01:03:15;;;;;;;0.40;0.40;;;4.10;99.90;;;;;;4420883;32;20065;-71
2021/04/27 01:05:41;;;;;;;1.08;0.98;;;4.20;99.90;;;;;;4427311;32;20074;-71
2021/04/27 01:08:31;;;;;;;1.08;0.65;;;4.20;99.90;;;;;;4430397;32;20061;-71
2021/04/27 01:11:07;;;;;;;0.32;0.32;;;4.10;99.90;;;;;;4410606;32;20069;-71
2021/04/27 01:14:12;;;;;;;0.57;0.57;;;4.10;99.90;;;;;;4425123;32;20417;-71
2021/04/27 01:16:44;;;;;;;0.40;0.40;;;4.20;99.90;;;;;;4394761;32;20070;-71
2021/04/27 01:19:17;;;;;;;0.37;0.37;;;4.10;99.90;;;;;;4415098;32;20120;-71
2021/04/27 01:21:43;;;;;;;0.70;0.65;;;4.10;99.90;;;;;;4417769;32;20124;-71
2021/04/27 01:24:17;;;;;;;0.40;0.40;;;4.10;99.90;;;;;;4414706;32;20070;-71
2021/04/27 01:26:47;;;;;;;0.30;0.30;;;4.00;99.90;;;;;;4413961;32;20496;-71
2021/04/27 01:29:16;;;;;;;0.30;0.30;;;3.90;99.90;;;;;;4399166;32;20069;-71
2021/04/27 01:31:42;;;;;;;0.30;0.30;;;3.90;99.90;;;;;;4425124;32;20053;-71
2021/04/27 01:34:11;;;;;;;0.30;0.30;;;3.80;99.90;;;;;;4417291;32;20086;-70
2021/04/27 01:36:37;;;;;;;0.25;0.25;;;3.80;99.90;;;;;;4420846;32;20146;-71
2021/04/27 01:39:06;;;;;;;0.40;0.40;;;3.80;99.90;;;;;;4427456;32;20089;-71
2021/04/27 01:41:32;;;;;;;0.37;0.37;;;3.70;99.90;;;;;;4430216;32;20094;-71
2021/04/27 01:43:58;;;;;;;0.40;0.40;;;3.80;99.90;;;;;;4429687;32;20050;-71
2021/04/27 01:46:25;;;;;;;0.40;0.40;;;3.80;99.90;;;;;;4424193;32;20101;-71
2021/04/27 01:48:51;;;;;;;0.30;0.30;;;3.90;99.90;;;;;;4423879;32;20081;-71
2021/04/27 01:51:17;;;;;;;0.20;0.20;;;3.80;99.90;;;;;;4420644;32;20090;-71
2021/04/27 01:53:44;;;;;;;0.82;0.82;;;3.80;99.90;;;;;;4419785;32;20066;-71
2021/04/27 01:56:10;;;;;;;0.30;0.30;;;3.70;99.90;;;;;;4419594;32;20142;-71
2021/04/27 01:58:36;;;;;;;0.30;0.30;;;3.70;99.90;;;;;;4426258;32;20073;-71
2021/04/27 02:01:03;;;;;;;0.30;0.30;;;3.60;99.90;;;;;;4426312;32;20069;-72
2021/04/27 02:03:28;;;;;;;4.28;1.90;;;3.50;99.90;;;;;;4422908;32;20078;-71
2021/04/27 02:05:54;;;;;;;0.30;0.30;;;3.50;99.90;;;;;;4427009;32;20073;-71
2021/04/27 02:08:20;;;;;;;0.37;0.37;;;3.50;99.90;;;;;;4428853;32;20140;-71
2021/04/27 02:10:46;;;;;;;0.40;0.40;;;3.50;99.90;;;;;;4421763;32;20088;-71
2021/04/27 02:13:13;;;;;;;0.32;0.32;;;3.60;99.90;;;;;;4424408;32;20565;-71
2021/04/27 02:15:41;;;;;;;0.47;0.47;;;3.60;99.90;;;;;;4414375;32;20066;-71
2021/04/27 02:18:32;;;;;;;0.30;0.30;;;3.60;99.90;;;;;;4414448;32;20061;-71
2021/04/27 02:21:00;;;;;;;0.30;0.30;;;3.60;99.90;;;;;;4404872;32;20145;-71
2021/04/27 02:23:29;;;;;;;0.47;0.47;;;3.60;99.90;;;;;;4415173;32;20061;-71
2021/04/27 02:25:56;;;;;;;0.40;0.40;;;3.50;99.90;;;;;;4415286;32;20073;-71
2021/04/27 02:28:23;;;;;;;6.40;1.33;;;3.50;99.90;;;;;;4424329;32;20066;-71
2021/04/27 02:30:51;;;;;;;0.30;0.30;;;3.40;99.90;;;;;;4422747;32;20069;-71
2021/04/27 02:33:16;;;;;;;0.30;0.30;;;3.40;99.90;;;;;;4418437;32;20160;-71
2021/04/27 02:35:43;;;;;;;0.60;0.60;;;3.40;99.90;;;;;;4415523;32;20076;-70
2021/04/27 02:38:10;;;;;;;0.50;0.50;;;3.50;99.90;;;;;;4430022;32;20065;-71
2021/04/27 02:40:36;;;;;;;0.65;0.65;;;3.60;99.90;;;;;;4426469;32;20085;-71
2021/04/27 02:43:02;;;;;;;0.40;0.40;;;3.60;99.90;;;;;;4428948;32;20395;-71
2021/04/27 02:45:32;;;;;;;0.30;0.30;;;3.50;99.90;;;;;;4428505;32;20101;-71
2021/04/27 02:48:08;;;;;;;5.07;0.85;;;3.40;99.90;;;;;;4417754;32;20073;-71
2021/04/27 02:50:34;;;;;;;0.20;0.20;;;3.20;99.90;;;;;;4419627;32;20246;-71
2021/04/27 02:52:59;;;;;;;0.30;0.30;;;3.20;99.90;;;;;;4421988;32;20789;-71
2021/04/27 02:55:25;;;;;;;0.50;0.50;;;3.20;99.90;;;;;;4414726;32;20065;-71
2021/04/27 02:57:50;;;;;;;0.30;0.30;;;3.30;99.90;;;;;;4423301;32;20074;-71
2021/04/27 03:00:16;;;;;;;0.45;0.45;;;3.30;99.90;;;;;;4426260;32;20443;-71
2021/04/27 03:02:42;;;;;;;0.50;0.50;;;3.30;99.90;;;;;;4420105;32;20068;-71
2021/04/27 03:05:08;;;;;;;0.73;0.55;;;3.20;99.90;;;;;;4425135;32;20208;-71
2021/04/27 03:07:33;;;;;;;0.50;0.50;;;3.10;99.90;;;;;;4428001;32;20078;-71
2021/04/27 03:09:59;;;;;;;0.57;0.57;;;3.20;99.90;;;;;;4423613;32;20074;-71
2021/04/27 03:12:24;;;;;;;1.15;1.05;;;3.20;99.90;;;;;;4420942;32;20066;-71
2021/04/27 03:14:50;;;;;;;0.30;0.30;;;3.20;99.90;;;;;;4420030;32;20077;-71
2021/04/27 03:17:15;;;;;;;0.40;0.40;;;3.30;99.90;;;;;;4413724;32;20583;-71
2021/04/27 03:19:41;;;;;;;0.55;0.55;;;3.30;99.90;;;;;;4413413;32;20144;-71
2021/04/27 03:22:06;;;;;;;0.80;0.28;;;3.30;99.90;;;;;;4416038;32;20162;-71
2021/04/27 03:24:32;;;;;;;1.55;1.42;;;3.30;99.90;;;;;;4413242;32;20131;-71
2021/04/27 03:26:57;;;;;;;0.52;0.52;;;3.30;99.90;;;;;;4413880;32;20058;-71
2021/04/27 03:29:23;;;;;;;0.65;0.62;;;3.30;99.90;;;;;;4427591;32;20150;-71
2021/04/27 03:31:48;;;;;;;0.60;0.60;;;3.30;99.90;;;;;;4416920;32;20073;-71
2021/04/27 03:34:14;;;;;;;0.57;0.57;;;3.40;99.90;;;;;;4425716;32;20418;-70
2021/04/27 03:36:39;;;;;;;3.00;1.30;;;3.40;99.90;;;;;;4419358;32;20059;-71
2021/04/27 03:39:05;;;;;;;2.35;1.12;;;3.40;99.90;;;;;;4414882;32;20470;-71
2021/04/27 03:41:30;;;;;;;0.32;0.32;;;3.30;99.80;;;;;;4413937;32;20126;-71
2021/04/27 03:43:56;;;;;;;2.45;1.50;;;3.30;99.70;;;;;;4412923;32;20070;-71
2021/04/27 03:46:21;;;;;;;0.90;0.85;;;3.40;99.50;;;;;;4417535;32;20066;-71
2021/04/27 03:48:47;;;;;;;0.30;0.30;;;3.40;99.00;;;;;;4418995;32;20522;-70
2021/04/27 03:51:12;;;;;;;1.10;1.02;;;3.30;98.90;;;;;;4421476;32;20061;-73
2021/04/27 03:53:38;;;;;;;0.40;0.40;;;3.40;98.90;;;;;;4423603;32;20168;-71
2021/04/27 03:56:04;;;;;;;0.40;0.40;;;3.30;98.90;;;;;;4425272;32;20091;-71
2021/04/27 03:58:29;;;;;;;0.50;0.50;;;3.20;98.90;;;;;;4418885;32;20073;-70
2021/04/27 04:00:54;;;;;;;0.32;0.32;;;3.20;98.90;;;;;;4418413;32;20110;-71
2021/04/27 04:03:21;;;;;;;0.40;0.40;;;3.20;98.80;;;;;;4425444;32;20439;-71
2021/04/27 04:05:47;;;;;;;0.45;0.45;;;3.30;98.60;;;;;;4427577;32;20530;-71
2021/04/27 04:08:13;;;;;;;0.47;0.47;;;3.30;98.70;;;;;;4431022;32;20078;-71
2021/04/27 04:10:38;;;;;;;0.37;0.37;;;3.30;98.60;;;;;;4423551;32;20065;-70
2021/04/27 04:13:04;;;;;;;5.12;2.50;;;3.40;98.30;;;;;;4425352;32;20408;-70
2021/04/27 04:15:29;;;;;;;0.60;0.60;;;3.40;98.40;;;;;;4417055;32;20170;-70
2021/04/27 04:17:55;;;;;;;0.55;0.55;;;3.30;98.30;;;;;;4415145;32;20073;-70
2021/04/27 04:20:23;;;;;;;3.00;1.35;;;3.30;98.50;;;;;;4414222;32;20110;-71
2021/04/27 04:22:50;;;;;;;0.30;0.30;;;3.30;98.60;;;;;;4405512;32;20069;-71
2021/04/27 04:25:17;;;;;;;0.30;0.30;;;3.30;98.50;;;;;;4412467;32;20123;-71
2021/04/27 04:27:43;;;;;;;0.40;0.40;;;3.30;98.40;;;;;;4419440;32;20069;-71
2021/04/27 04:30:14;;;;;;;0.70;0.70;;;3.30;98.60;;;;;;4427764;32;20077;-71
2021/04/27 04:32:40;;;;;;;0.47;0.47;;;3.30;98.40;;;;;;4417813;32;20076;-71
2021/04/27 04:35:07;;;;;;;0.37;0.37;;;3.30;98.30;;;;;;4414309;32;20494;-71
2021/04/27 04:37:32;;;;;;;1.08;0.93;;;3.40;98.30;;;;;;4428553;32;20065;-71
2021/04/27 04:39:58;;;;;;;12.30;1.33;;;3.40;98.50;;;;;;4423874;32;20135;-72
2021/04/27 04:42:23;;;;;;;2.17;0.75;;;3.40;98.10;;;;;;4414605;32;20468;-71
2021/04/27 04:44:49;;;;;;;2.12;1.15;;;3.50;98.00;;;;;;4417108;32;20069;-72
2021/04/27 04:47:14;;;;;;;0.30;0.30;;;3.60;97.60;;;;;;4425569;32;20518;-71
2021/04/27 04:49:40;;;;;;;1.45;0.95;;;3.50;97.40;;;;;;4418567;32;20136;-71
2021/04/27 04:52:05;;;;;;;0.70;0.70;;;3.60;97.40;;;;;;4419070;32;20065;-71
2021/04/27 04:54:31;;;;;;;3.17;1.12;;;3.60;97.40;;;;;;4428004;32;20498;-71
2021/04/27 04:56:56;;;;;;;0.30;0.30;;;3.60;97.40;;;;;;4421270;32;20125;-71
2021/04/27 04:59:22;;;;;;;0.50;0.50;;;3.60;97.20;;;;;;4418616;32;20074;-71
2021/04/27 05:01:48;;;;;;;0.43;0.43;;;3.70;97.10;;;;;;4407657;32;20403;-72
2021/04/27 05:04:13;;;;;;;0.50;0.50;;;3.80;96.80;;;;;;4420971;32;20498;-72
2021/04/27 05:06:42;;;;;;;0.68;0.68;;;3.90;96.70;;;;;;4427778;32;20066;-73
2021/04/27 05:09:09;;;;;;;0.37;0.37;;;3.90;96.80;;;;;;4425310;32;20436;-72
2021/04/27 05:11:35;;;;;;;2.95;1.37;;;4.00;96.70;;;;;;4418596;32;20069;-72
2021/04/27 05:14:01;;;;;;;0.40;0.40;;;4.10;96.70;;;;;;4419520;32;20543;-74
2021/04/27 05:16:27;;;;;;;0.60;0.60;;;4.20;96.80;;;;;;4401150;32;20591;-72
2021/04/27 05:18:53;;;;;;;0.60;0.60;;;4.20;96.60;;;;;;4388919;32;20062;-72
2021/04/27 05:21:19;;;;;;;0.30;0.30;;;4.30;96.50;;;;;;4406778;32;20519;-72
2021/04/27 05:23:44;;;;;;;0.90;0.90;;;4.30;96.30;;;;;;4411476;32;20089;-72
2021/04/27 05:26:12;;;;;;;2.17;1.60;;;4.40;96.00;;;;;;4406394;32;20077;-72
2021/04/27 05:28:38;;;;;;;0.47;0.47;;;4.50;96.20;;;;;;4392491;32;20283;-72
2021/04/27 05:31:04;;;;;;;0.80;0.75;;;4.50;95.90;;;;;;4394258;32;20065;-72
2021/04/27 05:33:30;;;;;;;1.98;1.02;;;4.60;95.80;;;;;;4389875;32;20145;-71
2021/04/27 05:35:55;;;;;;;3.78;0.98;;;4.70;95.50;;;;;;4409366;32;20089;-73
2021/04/27 05:38:21;;;;;;;0.62;0.62;;;4.80;95.60;;;;;;4409126;32;20090;-72
2021/04/27 05:40:46;;;;;;;9.85;3.22;;;4.90;95.30;;;;;;4409742;32;20095;-72
2021/04/27 05:43:12;;;;;;;0.30;0.30;;;5.10;95.10;;;;;;4407541;32;20085;-72
2021/04/27 05:45:37;;;;;;;0.40;0.40;;;5.20;94.90;;;;;;4417435;32;20069;-72
2021/04/27 05:48:04;;;;;;;0.57;0.57;;;5.20;94.60;;;;;;4411376;32;20091;-74
2021/04/27 05:50:29;;;;;;;0.75;0.75;;;5.30;94.60;;;;;;4408668;32;20135;-73
2021/04/27 05:52:55;;;;;;;0.30;0.30;;;5.30;94.40;;;;;;4417061;32;20579;-74
2021/04/27 05:55:20;;;;;;;0.90;0.90;;;5.30;94.20;;;;;;4413107;32;20074;-74
2021/04/27 05:57:46;;;;;;;0.30;0.30;;;5.40;93.80;;;;;;4408701;32;20082;-74
2021/04/27 06:00:12;;;;;;;0.65;0.65;;;5.50;93.80;;;;;;4404766;32;20145;-74
2021/04/27 06:02:38;;;;;;;0.50;0.50;;;5.60;93.70;;;;;;4411169;32;20128;-74
2021/04/27 06:05:04;;;;;;;4.68;0.60;;;5.70;93.50;;;;;;4411432;32;20081;-74
2021/04/27 06:07:29;;;;;;;0.32;0.32;;;5.80;93.20;;;;;;4400837;32;20970;-74
2021/04/27 06:09:55;;;;;;;0.40;0.40;;;5.90;92.90;;;;;;4420187;32;20085;-73
2021/04/27 06:12:20;;;;;;;0.82;0.82;;;6.00;92.00;;;;;;4410692;32;20428;-72
2021/04/27 06:14:46;;;;;;;0.70;0.70;;;6.10;92.60;;;;;;4421742;32;20136;-72
2021/04/27 06:17:11;;;;;;;5.25;0.75;;;6.20;91.70;;;;;;4412261;32;20383;-72
2021/04/27 06:19:37;;;;;;;2.28;0.93;;;6.30;92.30;;;;;;4409758;32;20472;-72
2021/04/27 06:22:02;;;;;;;0.30;0.30;;;6.40;92.00;;;;;;4414836;32;20129;-72
2021/04/27 06:24:28;;;;;;;0.50;0.50;;;6.50;91.90;;;;;;4421382;32;20078;-73
2021/04/27 06:26:54;;;;;;;0.40;0.40;;;6.60;90.60;;;;;;4410729;32;20086;-73
2021/04/27 06:29:19;;;;;;;0.30;0.30;;;6.70;90.40;;;;;;4411387;32;20069;-73
2021/04/27 06:31:45;;;;;;;0.62;0.62;;;6.70;89.10;;;;;;4414744;32;20096;-72
2021/04/27 06:34:10;;;;;;;0.40;0.40;;;6.70;88.70;;;;;;4416733;32;20112;-71
2021/04/27 06:36:36;;;;;;;0.50;0.50;;;6.80;89.80;;;;;;4410203;32;20116;-72
2021/04/27 06:39:04;;;;;;;0.40;0.40;;;6.90;87.20;;;;;;4410728;32;20518;-72
2021/04/27 06:41:32;;;;;;;0.30;0.30;;;7.00;87.20;;;;;;4407385;32;20069;-73
2021/04/27 06:43:58;;;;;;;0.28;0.28;;;7.00;87.80;;;;;;4408882;32;20073;-72
2021/04/27 06:46:23;;;;;;;0.40;0.40;;;7.20;87.90;;;;;;4413961;32;20066;-73
2021/04/27 06:48:49;;;;;;;0.37;0.37;;;7.30;86.60;;;;;;4406405;32;20404;-72
2021/04/27 06:51:17;;;;;;;1.55;0.62;;;7.40;85.10;;;;;;4404399;32;20168;-72
2021/04/27 06:53:44;;;;;;;0.30;0.30;;;7.50;84.50;;;;;;4407372;32;20489;-72
2021/04/27 06:56:09;;;;;;;0.62;0.62;;;7.50;83.10;;;;;;4408169;32;20066;-72
2021/04/27 06:58:35;;;;;;;0.43;0.43;;;7.40;84.00;;;;;;4404806;32;20070;-73
2021/04/27 07:01:00;;;;;;;0.40;0.40;;;7.40;83.70;;;;;;4410369;32;20097;-72
2021/04/27 07:03:26;;;;;;;0.30;0.30;;;7.40;83.90;;;;;;4409579;32;20059;-72
2021/04/27 07:05:51;;;;;;;1.87;0.68;;;7.40;83.10;;;;;;4412205;32;20421;-72
2021/04/27 07:08:17;;;;;;;1.45;0.93;;;7.50;82.40;;;;;;4408244;32;20101;-72
2021/04/27 07:10:42;;;;;;;0.40;0.40;;;7.60;82.70;;;;;;4414267;32;20093;-72
2021/04/27 07:13:08;;;;;;;0.30;0.30;;;7.70;81.70;;;;;;4413301;32;20062;-75
2021/04/27 07:15:33;;;;;;;0.43;0.43;;;7.90;83.20;;;;;;4407795;32;20069;-72
2021/04/27 07:17:59;;;;;;;0.20;0.20;;;7.80;81.10;;;;;;4405795;32;20310;-72
2021/04/27 07:20:25;;;;;;;0.35;0.35;;;7.70;80.40;;;;;;4400582;32;20069;-72
2021/04/27 07:22:53;;;;;;;0.40;0.40;;;7.70;81.70;;;;;;4408864;32;20074;-72
2021/04/27 07:25:18;;;;;;;0.30;0.30;;;7.90;82.80;;;;;;4407627;32;20077;-73
2021/04/27 07:27:45;;;;;;;0.30;0.30;;;8.10;80.00;;;;;;4417247;32;20135;-73
2021/04/27 07:30:12;;;;;;;0.55;0.55;;;8.10;79.90;;;;;;4405254;32;20140;-72
2021/04/27 07:32:38;;;;;;;0.37;0.37;;;8.10;80.10;;;;;;4403715;32;20083;-73
2021/04/27 07:35:05;;;;;;;0.30;0.30;;;8.30;80.60;;;;;;4400737;32;20074;-72
2021/04/27 07:37:30;;;;;;;0.30;0.30;;;8.50;79.20;;;;;;4408302;32;20077;-72
2021/04/27 07:39:56;;;;;;;0.40;0.40;;;8.60;79.70;;;;;;4406141;32;20086;-72
2021/04/27 07:42:22;;;;;;;0.47;0.40;;;8.70;77.80;;;;;;4410375;32;20083;-72
2021/04/27 07:44:48;;;;;;;0.30;0.30;;;8.70;76.90;;;;;;4408639;32;20105;-73
2021/04/27 07:47:13;;;;;;;0.30;0.30;;;8.70;76.40;;;;;;4408314;32;20100;-73
2021/04/27 07:49:39;;;;;;;0.30;0.30;;;8.70;77.40;;;;;;4410853;32;20077;-73
2021/04/27 07:52:04;;;;;;;0.40;0.40;;;8.80;76.40;;;;;;4405709;32;20093;-73
2021/04/27 07:54:30;;;;;;;0.65;0.65;;;9.00;75.60;;;;;;4414196;32;20541;-73
2021/04/27 07:56:56;;;;;;;0.57;0.57;;;8.90;76.30;;;;;;4406124;32;20630;-72
2021/04/27 07:59:21;;;;;;;0.25;0.25;;;8.80;76.00;;;;;;4409913;32;20081;-73
2021/04/27 08:01:47;;;;;;;0.30;0.30;;;9.00;75.00;;;;;;4413868;32;20062;-73
2021/04/27 08:04:14;;;;;;;0.30;0.30;;;9.20;74.50;;;;;;4406871;32;20149;-73
2021/04/27 08:06:39;;;;;;;0.30;0.30;;;9.20;73.20;;;;;;4412117;32;20066;-74
2021/04/27 08:09:05;;;;;;;0.50;0.47;;;9.20;73.90;;;;;;4416577;32;20587;-73
2021/04/27 08:11:32;;;;;;;0.22;0.22;;;9.20;74.40;;;;;;4408657;32;20539;-73
2021/04/27 08:13:58;;;;;;;0.30;0.30;;;9.50;73.20;;;;;;4406798;32;20077;-73
2021/04/27 08:16:24;;;;;;;0.35;0.35;;;9.60;71.50;;;;;;4410344;32;20079;-73
2021/04/27 08:18:49;;;;;;;0.40;0.40;;;9.50;70.70;;;;;;4412789;32;20068;-73
2021/04/27 08:21:15;;;;;;;0.40;0.40;;;9.60;71.20;;;;;;4410901;32;20062;-73
2021/04/27 08:23:41;;;;;;;0.30;0.30;;;9.70;70.70;;;;;;4408748;32;20132;-73
2021/04/27 08:26:11;;;;;;;0.30;0.30;;;9.80;70.20;;;;;;4412462;32;20202;-73
2021/04/27 08:28:36;;;;;;;0.30;0.30;;;9.90;71.70;;;;;;4412939;32;20089;-73
2021/04/27 08:31:02;;;;;;;0.30;0.30;;;10.10;71.60;;;;;;4410184;32;20074;-73
2021/04/27 08:33:28;;;;;;;0.30;0.30;;;10.10;68.60;;;;;;4409816;32;20090;-73
2021/04/27 08:35:54;;;;;;;0.35;0.35;;;10.10;69.00;;;;;;4408543;32;20069;-73
2021/04/27 08:38:20;;;;;;;0.30;0.30;;;10.20;66.70;;;;;;4411358;32;20456;-73
2021/04/27 08:40:46;;;;;;;0.20;0.20;;;10.00;67.30;;;;;;4413974;32;20196;-73
2021/04/27 08:43:14;;;;;;;0.22;0.22;;;9.60;69.10;;;;;;4407399;32;20452;-73
2021/04/27 08:45:41;;;;;;;0.75;0.40;;;9.90;69.70;;;;;;4408449;32;20070;-74
2021/04/27 08:48:09;;;;;;;0.30;0.30;;;10.10;69.70;;;;;;4405499;32;20164;-72
2021/04/27 08:50:35;;;;;;;1.85;1.10;;;10.30;67.40;;;;;;4411321;32;20073;-73
2021/04/27 08:53:02;;;;;;;0.35;0.35;;;10.40;67.00;;;;;;4410825;32;20128;-73
2021/04/27 08:55:28;;;;;;;0.40;0.40;;;10.20;65.80;;;;;;4411125;32;20328;-73
2021/04/27 08:57:53;;;;;;;0.77;0.77;;;10.30;67.30;;;;;;4411205;32;20090;-73
2021/04/27 09:00:20;;;;;;;0.30;0.30;;;10.50;68.20;;;;;;4409552;32;20286;-74
2021/04/27 09:02:56;;;;;;;0.30;0.30;;;10.70;65.70;;;;;;4410310;32;20074;-74
2021/04/27 09:05:25;;;;;;;0.30;0.30;;;11.00;65.20;;;;;;4410739;32;20064;-73
2021/04/27 09:07:52;;;;;;;0.30;0.30;;;11.00;63.20;;;;;;4413759;32;20093;-74
2021/04/27 09:10:21;;;;;;;0.30;0.30;;;11.00;65.10;;;;;;4412672;32;20077;-74
2021/04/27 09:12:49;;;;;;;0.40;0.40;;;11.00;63.30;;;;;;4413341;32;20132;-73
2021/04/27 09:15:25;;;;;;;0.40;0.40;;;11.20;63.40;;;;;;4403883;32;20085;-72
2021/04/27 09:17:50;;;;;;;0.30;0.30;;;11.10;61.40;;;;;;4399213;32;20077;-73
2021/04/27 09:20:16;;;;;;;0.40;0.40;;;11.10;59.80;;;;;;4401040;32;20057;-73
2021/04/27 09:22:42;;;;;;;0.30;0.30;;;11.40;60.90;;;;;;4401019;32;20078;-73
2021/04/27 09:25:09;;;;;;;0.22;0.22;;;11.50;60.00;;;;;;4408324;32;20081;-73
2021/04/27 09:27:39;;;;;;;0.30;0.30;;;11.50;59.00;;;;;;4412547;32;20140;-74
2021/04/27 09:30:26;;;;;;;0.28;0.28;;;11.70;60.50;;;;;;4409500;32;20101;-73
2021/04/27 09:32:56;;;;;;;0.40;0.40;;;11.90;57.40;;;;;;4391990;32;20082;-72
2021/04/27 09:35:35;;;;;;;0.43;0.43;;;11.80;59.90;;;;;;4404029;32;20511;-72
2021/04/27 09:38:13;;;;;;;0.30;0.30;;;12.00;57.90;;;;;;4404704;32;20475;-72
2021/04/27 09:41:00;;;;;;;0.30;0.30;;;12.20;56.10;;;;;;4407711;32;79991;-73
2021/04/27 09:43:37;;;;;;;0.80;0.40;;;12.30;56.70;;;;;;4412124;32;20050;-73
2021/04/27 09:46:06;;;;;;;0.37;0.37;;;12.50;56.50;;;;;;4408846;32;20090;-72
2021/04/27 09:48:50;;;;;;;0.47;0.47;;;12.60;56.60;;;;;;4412626;32;20535;-72
2021/04/27 09:51:19;;;;;;;0.32;0.32;;;12.90;56.00;;;;;;4401516;32;20471;-73
2021/04/27 09:53:51;;;;;;;0.40;0.40;;;12.90;54.20;;;;;;4411823;32;20122;-73
2021/04/27 09:56:35;;;;;;;0.22;0.22;;;13.00;55.50;;;;;;4409414;32;20135;-73
2021/04/27 09:59:04;;;;;;;0.55;0.55;;;12.80;54.30;;;;;;4410562;32;20073;-73
2021/04/27 10:01:30;;;;;;;0.30;0.30;;;12.80;54.10;;;;;;4414835;32;20094;-72
2021/04/27 10:03:57;;;;;;;0.70;0.60;;;12.80;54.20;;;;;;4417817;32;20132;-73
2021/04/27 10:06:23;;;;;;;0.30;0.30;;;13.20;54.10;;;;;;4406368;32;20078;-72
2021/04/27 10:08:49;;;;;;;0.37;0.37;;;13.50;53.20;;;;;;4410592;32;20065;-72
2021/04/27 10:11:16;;;;;;;0.30;0.30;;;13.50;52.70;;;;;;4407358;32;20090;-73
2021/04/27 10:13:42;;;;;;;0.30;0.30;;;13.60;53.20;;;;;;4412168;32;20069;-74
2021/04/27 10:16:07;;;;;;;0.62;0.62;;;13.50;52.80;;;;;;4406220;32;20053;-73
2021/04/27 10:18:34;;;;;;;0.30;0.30;;;13.60;54.20;;;;;;4408865;32;20185;-73
2021/04/27 10:20:59;;;;;;;0.60;0.60;;;13.70;52.90;;;;;;4412935;32;20491;-73
2021/04/27 10:23:25;;;;;;;0.88;0.60;;;14.00;52.60;;;;;;4407194;32;20127;-73
2021/04/27 10:25:52;;;;;;;0.52;0.50;;;13.90;52.10;;;;;;4413777;32;20478;-73
2021/04/27 10:28:18;;;;;;;0.20;0.20;;;14.20;52.60;;;;;;4419297;32;20110;-72
2021/04/27 10:30:45;;;;;;;0.30;0.30;;;14.20;52.90;;;;;;4413924;32;20455;-74
2021/04/27 10:33:26;;;;;;;0.88;0.70;;;14.40;52.30;;;;;;4406829;32;20141;-73
2021/04/27 10:36:10;;;;;;;0.40;0.40;;;14.60;51.50;;;;;;4416713;32;20057;-74
2021/04/27 10:38:46;;;;;;;0.30;0.30;;;14.90;51.20;;;;;;4408636;32;20089;-72
2021/04/27 10:41:13;;;;;;;0.35;0.35;;;14.90;49.80;;;;;;4413969;32;20065;-72
2021/04/27 10:43:41;;;;;;;0.75;0.70;;;14.60;50.10;;;;;;4400313;32;20082;-73
2021/04/27 10:46:31;;;;;;;0.43;0.43;;;15.00;50.20;;;;;;4404785;32;20098;-71
2021/04/27 10:49:19;;;;;;;0.30;0.30;;;15.00;50.80;;;;;;4397215;32;20573;-72
2021/04/27 10:51:46;;;;;;;0.30;0.30;;;14.60;49.40;;;;;;4387184;32;20065;-72
2021/04/27 10:54:20;;;;;;;0.55;0.55;;;14.80;51.80;;;;;;4411797;32;20124;-71
2021/04/27 10:57:07;;;;;;;0.30;0.30;;;15.00;51.10;;;;;;4409975;32;20077;-72
2021/04/27 10:59:50;;;;;;;0.20;0.20;;;15.50;51.70;;;;;;4390196;32;20070;-72
2021/04/27 11:02:19;;;;;;;0.22;0.22;;;15.80;50.70;;;;;;4406336;32;20586;-71
2021/04/27 11:04:46;;;;;;;3.80;1.08;;;15.80;49.70;;;;;;4412700;32;20089;-72
2021/04/27 11:07:17;;;;;;;0.20;0.20;;;15.90;48.90;;;;;;4409153;32;20070;-72
2021/04/27 11:10:01;;;;;;;2.83;1.25;;;16.10;49.40;;;;;;4405191;32;20097;-72
2021/04/27 11:12:32;;;;;;;0.30;0.30;;;16.50;48.70;;;;;;4408531;32;20085;-71
2021/04/27 11:14:59;;;;;;;;;;;16.50;48.60;;;;;;4409077;32;20479;-72
2021/04/27 11:17:35;;;;;;;0.20;0.20;;;17.00;47.40;;;;;;4413752;32;19965;-72
2021/04/27 11:20:03;;;;;;;0.20;0.20;;;16.90;47.20;;;;;;4411172;32;20054;-72
2021/04/27 11:22:33;;;;;;;0.20;0.20;;;17.50;47.00;;;;;;4408345;32;20094;-72
2021/04/27 11:25:07;;;;;;;0.30;0.30;;;17.40;44.60;;;;;;4408064;32;20061;-71
2021/04/27 11:27:36;;;;;;;0.20;0.20;;;17.10;45.90;;;;;;4412270;32;20133;-73
2021/04/27 11:30:14;;;;;;;0.20;0.20;;;17.50;46.80;;;;;;4404481;32;20062;-73
2021/04/27 11:32:42;;;;;;;1.77;0.37;;;17.70;46.60;;;;;;4406612;32;20053;-72
2021/04/27 11:35:11;;;;;;;1.27;0.70;;;17.40;45.20;;;;;;4407001;32;20060;-71
2021/04/27 11:37:41;;;;;;;0.20;0.20;;;17.40;45.50;;;;;;4413341;32;20077;-73
2021/04/27 11:40:29;;;;;;;12.63;0.30;;;17.60;46.50;;;;;;4410129;32;20057;-73
2021/04/27 11:43:14;;;;;;;0.30;0.30;;;17.60;45.60;;;;;;4397391;32;20062;-73
2021/04/27 11:45:44;;;;;;;0.20;0.20;;;17.80;44.50;;;;;;4409873;32;20177;-72
2021/04/27 11:48:12;;;;;;;0.30;0.30;;;17.80;44.10;;;;;;4408633;32;20452;-72
2021/04/27 11:50:38;;;;;;;0.30;0.30;;;17.90;44.90;;;;;;4410585;32;20109;-73
2021/04/27 11:53:06;;;;;;;0.20;0.20;;;18.10;45.20;;;;;;4413821;32;20058;-72
2021/04/27 11:55:35;;;;;;;0.20;0.20;;;17.90;44.00;;;;;;4408771;32;20061;-73
2021/04/27 11:58:05;;;;;;;0.45;0.45;;;18.10;44.00;;;;;;4414260;32;20478;-72
2021/04/27 12:00:47;;;;;;;0.20;0.20;;;18.30;43.70;;;;;;4410837;32;20486;-71
2021/04/27 12:03:16;;;;;;;0.20;0.20;;;18.60;43.40;;;;;;4409965;32;20110;-72
2021/04/27 12:05:42;;;;;;;0.65;0.60;;;18.90;42.50;;;;;;4410836;32;20082;-73
2021/04/27 12:08:27;;;;;;;0.22;0.22;;;19.20;41.90;;;;;;4408235;32;20074;-72
2021/04/27 12:11:14;;;;;;;0.25;0.25;;;18.70;41.20;;;;;;4415020;32;20065;-73
2021/04/27 12:13:44;;;;;;;1.17;0.75;;;19.00;40.40;;;;;;4405845;32;20073;-73
2021/04/27 12:16:13;;;;;;;0.20;0.20;;;18.90;41.80;;;;;;4411551;32;20120;-72
2021/04/27 12:18:48;;;;;;;0.25;0.25;;;18.70;42.40;;;;;;4409494;32;20081;-72
2021/04/27 12:21:38;;;;;;;0.20;0.20;;;19.40;41.50;;;;;;4410316;32;20178;-73
2021/04/27 12:24:06;;;;;;;0.30;0.30;;;20.50;41.60;;;;;;4399722;32;20077;-73
2021/04/27 12:26:32;;;;;;;0.25;0.25;;;20.60;39.90;;;;;;4420082;32;20455;-72
2021/04/27 12:28:58;;;;;;;0.15;0.15;;;20.10;39.90;;;;;;4412905;32;20070;-72
2021/04/27 12:31:25;;;;;;;2.72;0.37;;;20.20;41.40;;;;;;4412921;32;20074;-73
2021/04/27 12:33:55;;;;;;;0.65;0.55;;;20.30;39.50;;;;;;4411883;32;20097;-74
2021/04/27 12:36:31;;;;;;;;;;;20.60;39.20;;;;;;4413061;32;20065;-73
2021/04/27 12:38:57;;;;;;;0.20;0.20;;;20.70;38.50;;;;;;4414685;32;20296;-74
2021/04/27 12:41:35;;;;;;;0.17;0.17;;;19.70;38.80;;;;;;4408120;32;20519;-74
2021/04/27 12:44:24;;;;;;;0.30;0.30;;;20.00;40.20;;;;;;4406505;32;20073;-73
2021/04/27 12:46:50;;;;;;;0.30;0.30;;;20.10;39.60;;;;;;4396570;32;20548;-74
2021/04/27 12:49:15;;;;;;;1.17;0.40;;;20.90;38.40;;;;;;4411665;32;20056;-73
2021/04/27 12:51:41;;;;;;;1.02;0.80;;;20.80;39.40;;;;;;4417622;32;20053;-73
2021/04/27 12:54:27;;;;;;;0.35;0.35;;;21.50;36.60;;;;;;4418918;32;20064;-74
2021/04/27 12:57:15;;;;;;;0.20;0.20;;;21.30;36.90;;;;;;4419619;32;20089;-74